Time;durP1;ratioP1;P1;durP2;ratioP2;P2;SDS_P1;SDS_P2;PMS_P1;PMS_P2;Temp;Humidity;BMP_temperature;BMP_pressure;BME280_temperature;BME280_humidity;BME280_pressure;Samples;Min_cycle;Max_cycle;Signal;HPM_P1;HPM_P2
2023/08/30 00:00:18;;;;;;;5.50;4.90;;;;;;;;;;5008375;28;100244;-71
2023/08/30 00:02:45;;;;;;;9.18;4.90;;;;;;;;;;5009906;28;100112;-72
2023/08/30 00:05:11;;;;;;;5.13;4.72;;;;;;;;;;5012599;28;99198;-72
2023/08/30 00:07:38;;;;;;;5.22;4.43;;;;;;;;;;4996195;28;100347;-72
2023/08/30 00:10:04;;;;;;;5.00;4.60;;;;;;;;;;4989784;28;99827;-72
2023/08/30 00:12:31;;;;;;;5.32;4.85;;;;;;;;;;4989502;28;100184;-71
2023/08/30 00:14:58;;;;;;;4.95;4.55;;;;;;;;;;4987820;28;100054;-72
2023/08/30 00:17:24;;;;;;;5.40;5.00;;;;;;;;;;4988741;28;100187;-72
2023/08/30 00:19:52;;;;;;;5.72;5.05;;;;;;;;;;4989433;28;100251;-72
2023/08/30 00:22:21;;;;;;;5.45;4.95;;;;;;;;;;4988213;28;100226;-72
2023/08/30 00:24:47;;;;;;;6.40;5.80;;;;;;;;;;4993026;28;100246;-72
2023/08/30 00:27:13;;;;;;;7.88;5.30;;;;;;;;;;4989226;28;99958;-73
2023/08/30 00:29:40;;;;;;;7.70;5.25;;;;;;;;;;4988478;28;99179;-72
2023/08/30 00:32:07;;;;;;;6.00;5.40;;;;;;;;;;4987774;28;100386;-71
2023/08/30 00:34:34;;;;;;;5.97;5.38;;;;;;;;;;4987173;28;99518;-71
2023/08/30 00:37:01;;;;;;;6.38;5.60;;;;;;;;;;4986288;28;101744;-72
2023/08/30 00:39:27;;;;;;;6.32;4.93;;;;;;;;;;4986990;28;101405;-72
2023/08/30 00:41:54;;;;;;;6.72;6.10;;;;;;;;;;4989557;28;98884;-71
2023/08/30 00:44:22;;;;;;;6.38;5.75;;;;;;;;;;4986575;28;101867;-72
2023/08/30 00:46:48;;;;;;;8.23;5.53;;;;;;;;;;4990880;28;100298;-72
2023/08/30 00:49:15;;;;;;;6.53;5.85;;;;;;;;;;4987548;28;99878;-72
2023/08/30 00:51:41;;;;;;;6.53;5.93;;;;;;;;;;4989170;28;99398;-72
2023/08/30 00:54:08;;;;;;;6.43;5.82;;;;;;;;;;4988776;28;99489;-72
2023/08/30 00:56:34;;;;;;;6.47;5.88;;;;;;;;;;4986483;28;99242;-73
2023/08/30 00:59:01;;;;;;;6.75;5.93;;;;;;;;;;5002331;28;100982;-72
2023/08/30 01:01:27;;;;;;;6.38;5.72;;;;;;;;;;5006968;28;100207;-72
2023/08/30 01:03:54;;;;;;;12.80;5.68;;;;;;;;;;5007932;28;98792;-72
2023/08/30 01:06:20;;;;;;;6.40;5.75;;;;;;;;;;5007423;28;99057;-72
2023/08/30 01:08:47;;;;;;;12.02;6.00;;;;;;;;;;5011795;28;99892;-72
2023/08/30 01:11:32;;;;;;;5.70;5.20;;;;;;;;;;5009111;28;100242;-72
2023/08/30 01:14:01;;;;;;;5.47;5.10;;;;;;;;;;5008045;28;99013;-72
2023/08/30 01:16:27;;;;;;;6.72;5.57;;;;;;;;;;4988874;28;98741;-72
2023/08/30 01:18:56;;;;;;;5.45;5.05;;;;;;;;;;4987800;28;99160;-71
2023/08/30 01:21:41;;;;;;;5.25;4.40;;;;;;;;;;4986636;28;101667;-71
2023/08/30 01:24:09;;;;;;;5.88;5.32;;;;;;;;;;4987990;28;99182;-72
2023/08/30 01:26:48;;;;;;;5.53;5.03;;;;;;;;;;4987286;28;99518;-73
2023/08/30 01:29:16;;;;;;;5.78;5.28;;;;;;;;;;4988272;28;98882;-71
2023/08/30 01:31:43;;;;;;;5.70;5.15;;;;;;;;;;4989809;28;100001;-72
2023/08/30 01:34:10;;;;;;;6.30;5.35;;;;;;;;;;4988185;28;98930;-72
2023/08/30 01:36:37;;;;;;;5.95;5.45;;;;;;;;;;4988212;28;99321;-71
2023/08/30 01:39:04;;;;;;;6.20;5.60;;;;;;;;;;4987202;28;100523;-72
2023/08/30 01:41:32;;;;;;;6.22;5.70;;;;;;;;;;4985865;28;100013;-72
2023/08/30 01:44:03;;;;;;;7.85;5.75;;;;;;;;;;4986140;28;98504;-71
2023/08/30 01:46:30;;;;;;;5.75;5.25;;;;;;;;;;4987089;28;99442;-71
2023/08/30 01:48:56;;;;;;;6.88;5.85;;;;;;;;;;4986485;28;101877;-72
2023/08/30 01:51:24;;;;;;;8.23;5.97;;;;;;;;;;4987649;28;99504;-72
2023/08/30 01:53:52;;;;;;;7.85;6.05;;;;;;;;;;4997068;28;101942;-73
2023/08/30 01:56:19;;;;;;;7.53;5.13;;;;;;;;;;5007487;28;98741;-73
2023/08/30 01:58:45;;;;;;;6.68;5.85;;;;;;;;;;5006550;28;101823;-72
2023/08/30 02:01:12;;;;;;;9.43;6.18;;;;;;;;;;5005316;28;100888;-72
2023/08/30 02:03:38;;;;;;;6.53;5.70;;;;;;;;;;5007857;28;98678;-72
2023/08/30 02:06:11;;;;;;;6.10;5.60;;;;;;;;;;5000105;28;98524;-71
2023/08/30 02:08:37;;;;;;;;;;;;;;;;;;4985946;28;99469;-72
2023/08/30 02:11:07;;;;;;;6.93;5.75;;;;;;;;;;4987119;28;123229;-71
2023/08/30 02:13:34;;;;;;;6.68;5.10;;;;;;;;;;4986097;28;100965;-73
2023/08/30 02:16:02;;;;;;;5.75;5.28;;;;;;;;;;4989120;28;98487;-72
2023/08/30 02:18:29;;;;;;;11.23;6.50;;;;;;;;;;4988228;28;100468;-72
2023/08/30 02:20:57;;;;;;;6.28;5.68;;;;;;;;;;4985285;28;99029;-72
2023/08/30 02:23:25;;;;;;;7.15;5.72;;;;;;;;;;4997451;28;100352;-72
2023/08/30 02:25:51;;;;;;;6.10;5.60;;;;;;;;;;5007440;28;99181;-72
2023/08/30 02:28:18;;;;;;;6.38;5.80;;;;;;;;;;5005994;28;99860;-73
2023/08/30 02:30:45;;;;;;;6.68;6.03;;;;;;;;;;5007794;28;99305;-72
2023/08/30 02:33:11;;;;;;;7.07;6.25;;;;;;;;;;5006672;28;100359;-72
2023/08/30 02:35:37;;;;;;;6.60;5.97;;;;;;;;;;5009278;28;99877;-71
2023/08/30 02:38:04;;;;;;;8.80;6.32;;;;;;;;;;5006856;28;99977;-72
2023/08/30 02:40:32;;;;;;;8.63;6.78;;;;;;;;;;5004721;28;101305;-71
2023/08/30 02:42:58;;;;;;;7.07;6.13;;;;;;;;;;5005327;28;100545;-72
2023/08/30 02:45:24;;;;;;;7.40;6.80;;;;;;;;;;5006990;28;99553;-72
2023/08/30 02:47:54;;;;;;;6.85;5.97;;;;;;;;;;5006317;28;100296;-72
2023/08/30 02:50:21;;;;;;;8.70;6.60;;;;;;;;;;5004978;28;101409;-71
2023/08/30 02:52:47;;;;;;;7.82;7.03;;;;;;;;;;5005863;28;99437;-72
2023/08/30 02:55:14;;;;;;;7.57;6.80;;;;;;;;;;4986219;28;99757;-72
2023/08/30 02:57:40;;;;;;;7.80;6.57;;;;;;;;;;4988406;28;99523;-71
2023/08/30 03:00:08;;;;;;;9.13;6.95;;;;;;;;;;4985375;28;101714;-73
2023/08/30 03:02:35;;;;;;;7.80;7.00;;;;;;;;;;4984860;28;99917;-71
2023/08/30 03:05:04;;;;;;;9.18;7.22;;;;;;;;;;4985041;28;101891;-71
2023/08/30 03:07:30;;;;;;;11.35;7.90;;;;;;;;;;4986668;28;98759;-72
2023/08/30 03:09:57;;;;;;;11.80;7.20;;;;;;;;;;4984876;28;101449;-71
2023/08/30 03:12:24;;;;;;;7.28;6.60;;;;;;;;;;4986647;28;99009;-72
2023/08/30 03:14:51;;;;;;;8.13;7.40;;;;;;;;;;4985730;28;101814;-72
2023/08/30 03:17:17;;;;;;;8.50;7.22;;;;;;;;;;4984120;28;100102;-72
2023/08/30 03:19:44;;;;;;;9.38;8.02;;;;;;;;;;4990820;28;98369;-72
2023/08/30 03:22:10;;;;;;;11.02;7.03;;;;;;;;;;4985282;28;100123;-72
2023/08/30 03:24:38;;;;;;;11.00;7.82;;;;;;;;;;4985809;28;99281;-73
2023/08/30 03:27:04;;;;;;;8.93;8.13;;;;;;;;;;4986073;28;99220;-73
2023/08/30 03:29:30;;;;;;;12.48;8.30;;;;;;;;;;4989091;28;99452;-71
2023/08/30 03:31:57;;;;;;;8.35;7.53;;;;;;;;;;4989909;28;99203;-72
2023/08/30 03:34:23;;;;;;;10.02;8.20;;;;;;;;;;4988164;28;101893;-72
2023/08/30 03:36:54;;;;;;;12.90;8.90;;;;;;;;;;4988228;28;101913;-72
2023/08/30 03:39:20;;;;;;;9.82;7.70;;;;;;;;;;4988680;28;100554;-73
2023/08/30 03:41:47;;;;;;;10.10;7.93;;;;;;;;;;4991116;28;101128;-72
2023/08/30 03:44:13;;;;;;;14.35;7.95;;;;;;;;;;4990235;28;98332;-72
2023/08/30 03:46:40;;;;;;;10.10;8.50;;;;;;;;;;4987797;28;99008;-72
2023/08/30 03:49:06;;;;;;;10.73;8.35;;;;;;;;;;4988978;28;101987;-71
2023/08/30 03:51:33;;;;;;;8.77;7.88;;;;;;;;;;4989011;28;99752;-72
2023/08/30 03:54:00;;;;;;;13.95;8.68;;;;;;;;;;4998334;28;98761;-72
2023/08/30 03:56:26;;;;;;;13.98;8.98;;;;;;;;;;5009458;28;98751;-71
2023/08/30 03:58:52;;;;;;;11.30;8.38;;;;;;;;;;5009383;28;100485;-72
2023/08/30 04:01:19;;;;;;;10.73;8.02;;;;;;;;;;5006944;28;101349;-71
2023/08/30 04:03:46;;;;;;;10.48;7.95;;;;;;;;;;5011492;28;101721;-72
2023/08/30 04:06:12;;;;;;;9.82;7.30;;;;;;;;;;4989178;28;100242;-72
2023/08/30 04:08:39;;;;;;;14.63;8.77;;;;;;;;;;4988812;28;100002;-71
2023/08/30 04:11:05;;;;;;;9.95;8.45;;;;;;;;;;4988057;28;101758;-73
2023/08/30 04:13:33;;;;;;;11.02;8.63;;;;;;;;;;4988288;28;98814;-72
2023/08/30 04:16:00;;;;;;;10.23;8.60;;;;;;;;;;4986993;28;99954;-72
2023/08/30 04:18:26;;;;;;;9.35;8.05;;;;;;;;;;4987999;28;100411;-73
2023/08/30 04:20:52;;;;;;;9.25;8.35;;;;;;;;;;4989266;28;98726;-72
2023/08/30 04:23:19;;;;;;;9.55;8.55;;;;;;;;;;4991260;28;101157;-72
2023/08/30 04:25:45;;;;;;;12.60;8.55;;;;;;;;;;4989426;28;98880;-73
2023/08/30 04:28:12;;;;;;;12.32;9.27;;;;;;;;;;4988001;28;99458;-71
2023/08/30 04:30:38;;;;;;;12.55;9.07;;;;;;;;;;4987854;28;101933;-72
2023/08/30 04:33:06;;;;;;;11.93;8.73;;;;;;;;;;4988309;28;102007;-72
2023/08/30 04:35:35;;;;;;;9.57;8.60;;;;;;;;;;4988333;28;98520;-72
2023/08/30 04:38:02;;;;;;;16.02;7.93;;;;;;;;;;4987596;28;101502;-71
2023/08/30 04:40:30;;;;;;;9.45;7.63;;;;;;;;;;4985795;28;99907;-72
2023/08/30 04:42:59;;;;;;;12.63;9.00;;;;;;;;;;4987930;28;99814;-71
2023/08/30 04:45:25;;;;;;;15.00;8.45;;;;;;;;;;4991631;28;100112;-72
2023/08/30 04:47:52;;;;;;;10.85;8.20;;;;;;;;;;4987074;28;99702;-72
2023/08/30 04:50:19;;;;;;;9.32;8.30;;;;;;;;;;4985986;28;101174;-72
2023/08/30 04:52:46;;;;;;;9.82;8.27;;;;;;;;;;4987381;28;101513;-72
2023/08/30 04:55:12;;;;;;;8.77;7.90;;;;;;;;;;4987333;28;101536;-71
2023/08/30 04:57:44;;;;;;;11.82;7.97;;;;;;;;;;5008516;28;98288;-72
2023/08/30 05:00:13;;;;;;;9.85;7.25;;;;;;;;;;5006965;28;100003;-71
2023/08/30 05:02:42;;;;;;;9.75;7.50;;;;;;;;;;5007736;28;100410;-71
2023/08/30 05:05:10;;;;;;;7.93;7.13;;;;;;;;;;5006566;28;102243;-72
2023/08/30 05:07:36;;;;;;;9.68;8.35;;;;;;;;;;5010642;28;100216;-72
2023/08/30 05:10:04;;;;;;;11.13;8.13;;;;;;;;;;5006459;28;101405;-71
2023/08/30 05:12:31;;;;;;;11.02;8.15;;;;;;;;;;5006672;27;101278;-72
2023/08/30 05:14:58;;;;;;;9.35;8.15;;;;;;;;;;5006910;28;100877;-72
2023/08/30 05:17:28;;;;;;;9.38;8.18;;;;;;;;;;5005874;28;100205;-72
2023/08/30 05:19:56;;;;;;;14.70;8.68;;;;;;;;;;5007023;28;101729;-72
2023/08/30 05:22:22;;;;;;;8.60;7.80;;;;;;;;;;5008456;28;98920;-72
2023/08/30 05:24:48;;;;;;;12.38;8.35;;;;;;;;;;5007257;28;100203;-72
2023/08/30 05:27:17;;;;;;;9.13;7.63;;;;;;;;;;5006719;28;100235;-73
2023/08/30 05:29:44;;;;;;;10.30;8.18;;;;;;;;;;5009019;28;100985;-72
2023/08/30 05:32:10;;;;;;;9.77;8.18;;;;;;;;;;5006155;28;101818;-72
2023/08/30 05:34:46;;;;;;;13.13;8.10;;;;;;;;;;5006612;28;100336;-71
2023/08/30 05:37:23;;;;;;;10.93;8.50;;;;;;;;;;5006454;28;101051;-72
2023/08/30 05:39:52;;;;;;;12.48;8.57;;;;;;;;;;5007207;28;98602;-72
2023/08/30 05:42:19;;;;;;;9.50;8.10;;;;;;;;;;4999309;28;99789;-72
2023/08/30 05:44:47;;;;;;;13.50;8.98;;;;;;;;;;4986708;28;100096;-72
2023/08/30 05:47:15;;;;;;;12.35;8.45;;;;;;;;;;4988400;28;99107;-72
2023/08/30 05:49:41;;;;;;;9.27;8.25;;;;;;;;;;4986608;28;100954;-72
2023/08/30 05:52:08;;;;;;;10.68;8.65;;;;;;;;;;4991817;28;99454;-72
2023/08/30 05:54:35;;;;;;;9.00;8.02;;;;;;;;;;4991421;28;100955;-72
2023/08/30 05:57:01;;;;;;;9.48;8.43;;;;;;;;;;4986309;28;101753;-72
2023/08/30 05:59:28;;;;;;;11.75;7.95;;;;;;;;;;4984715;28;100764;-71
2023/08/30 06:01:55;;;;;;;9.05;7.60;;;;;;;;;;4987613;28;99143;-71
2023/08/30 06:04:22;;;;;;;9.13;8.25;;;;;;;;;;4987125;28;99288;-71
2023/08/30 06:06:48;;;;;;;10.18;7.47;;;;;;;;;;4986655;28;98976;-72
2023/08/30 06:09:14;;;;;;;11.57;9.05;;;;;;;;;;4985399;28;99172;-71
2023/08/30 06:11:41;;;;;;;11.95;8.20;;;;;;;;;;4988401;28;99677;-72
2023/08/30 06:14:08;;;;;;;9.57;8.00;;;;;;;;;;4989539;28;100016;-72
2023/08/30 06:16:34;;;;;;;9.82;7.57;;;;;;;;;;4988672;28;100107;-74
2023/08/30 06:19:00;;;;;;;10.00;8.57;;;;;;;;;;4986988;28;99269;-73
2023/08/30 06:21:27;;;;;;;10.10;7.82;;;;;;;;;;4986933;28;100975;-74
2023/08/30 06:23:53;;;;;;;9.23;7.88;;;;;;;;;;4987068;28;100347;-74
2023/08/30 06:26:20;;;;;;;11.32;7.95;;;;;;;;;;4984894;28;100266;-73
2023/08/30 06:28:46;;;;;;;11.57;8.65;;;;;;;;;;4983557;28;99811;-74
2023/08/30 06:31:29;;;;;;;13.32;8.82;;;;;;;;;;4968722;28;100104;-73
2023/08/30 06:33:55;;;;;;;14.73;8.68;;;;;;;;;;4975454;28;98928;-74
2023/08/30 06:36:23;;;;;;;12.65;8.77;;;;;;;;;;4985893;28;99617;-73
2023/08/30 06:38:49;;;;;;;9.35;7.80;;;;;;;;;;4987506;28;99997;-73
2023/08/30 06:41:16;;;;;;;11.27;8.93;;;;;;;;;;4986055;28;99087;-73
2023/08/30 06:43:42;;;;;;;15.20;8.55;;;;;;;;;;4986625;28;100666;-73
2023/08/30 06:46:09;;;;;;;11.85;9.32;;;;;;;;;;4981006;28;98942;-73
2023/08/30 06:48:35;;;;;;;10.20;9.15;;;;;;;;;;4966069;28;100212;-73
2023/08/30 06:51:02;;;;;;;11.13;8.93;;;;;;;;;;4966978;28;100348;-75
2023/08/30 06:53:28;;;;;;;12.15;9.35;;;;;;;;;;4966739;28;99079;-74
2023/08/30 06:55:58;;;;;;;12.43;9.73;;;;;;;;;;4982902;28;99953;-73
2023/08/30 06:58:25;;;;;;;10.77;8.68;;;;;;;;;;4986471;28;100185;-73
2023/08/30 07:00:52;;;;;;;13.40;9.13;;;;;;;;;;4987153;28;100133;-73
2023/08/30 07:03:19;;;;;;;11.88;10.15;;;;;;;;;;4986848;28;99367;-72
2023/08/30 07:05:47;;;;;;;12.68;8.80;;;;;;;;;;4971854;28;99913;-72
2023/08/30 07:08:14;;;;;;;9.98;8.80;;;;;;;;;;4970526;28;99196;-73
2023/08/30 07:10:41;;;;;;;12.48;9.45;;;;;;;;;;4977021;28;100613;-73
2023/08/30 07:13:10;;;;;;;9.70;8.70;;;;;;;;;;5006890;28;99880;-73
2023/08/30 07:15:37;;;;;;;10.35;9.30;;;;;;;;;;5009578;28;98842;-72
2023/08/30 07:18:04;;;;;;;11.95;9.13;;;;;;;;;;5012323;28;99326;-72
2023/08/30 07:20:31;;;;;;;13.18;8.98;;;;;;;;;;5009959;28;100505;-72
2023/08/30 07:22:57;;;;;;;10.30;9.27;;;;;;;;;;5000388;28;101234;-71
2023/08/30 07:25:24;;;;;;;19.00;9.88;;;;;;;;;;4989830;28;99253;-72
2023/08/30 07:27:50;;;;;;;14.73;8.75;;;;;;;;;;4989963;28;99171;-73
2023/08/30 07:30:17;;;;;;;17.05;10.20;;;;;;;;;;4989390;28;100514;-72
2023/08/30 07:32:43;;;;;;;10.80;8.85;;;;;;;;;;4989136;28;99214;-73
2023/08/30 07:35:10;;;;;;;16.33;8.65;;;;;;;;;;4989808;28;99676;-73
2023/08/30 07:37:40;;;;;;;9.65;8.73;;;;;;;;;;4985063;28;100843;-72
2023/08/30 07:40:09;;;;;;;11.38;9.07;;;;;;;;;;4973320;28;99245;-73
2023/08/30 07:42:36;;;;;;;14.75;9.23;;;;;;;;;;4969745;28;101594;-74
2023/08/30 07:45:04;;;;;;;14.70;9.10;;;;;;;;;;4969422;28;99940;-73
2023/08/30 07:47:30;;;;;;;11.02;8.57;;;;;;;;;;5008452;28;100451;-73
2023/08/30 07:49:57;;;;;;;13.02;9.55;;;;;;;;;;4988324;28;99811;-73
2023/08/30 07:52:23;;;;;;;10.90;8.23;;;;;;;;;;4985231;28;100306;-73
2023/08/30 07:55:09;;;;;;;8.82;7.90;;;;;;;;;;4980466;28;99186;-73
2023/08/30 07:57:36;;;;;;;9.77;8.32;;;;;;;;;;4977192;28;101318;-72
2023/08/30 08:00:03;;;;;;;9.18;8.27;;;;;;;;;;4970277;28;98969;-72
2023/08/30 08:02:37;;;;;;;9.63;7.85;;;;;;;;;;4976501;28;99254;-72
2023/08/30 08:05:03;;;;;;;10.90;8.15;;;;;;;;;;4988800;28;98954;-74
2023/08/30 08:07:30;;;;;;;8.65;7.65;;;;;;;;;;4980449;28;100088;-73
2023/08/30 08:09:56;;;;;;;17.02;7.25;;;;;;;;;;4988896;28;100225;-74
2023/08/30 08:12:23;;;;;;;9.10;7.60;;;;;;;;;;4987468;28;99361;-75
2023/08/30 08:14:49;;;;;;;11.25;9.63;;;;;;;;;;4989026;28;99911;-73
2023/08/30 08:17:16;;;;;;;9.60;7.25;;;;;;;;;;4978735;28;100211;-74
2023/08/30 08:19:43;;;;;;;12.10;7.70;;;;;;;;;;4988648;28;99122;-73
2023/08/30 08:22:10;;;;;;;8.82;7.18;;;;;;;;;;4988868;28;100193;-73
2023/08/30 08:24:36;;;;;;;8.27;7.47;;;;;;;;;;4989923;28;100144;-71
2023/08/30 08:27:05;;;;;;;10.18;6.47;;;;;;;;;;4981832;28;98984;-71
2023/08/30 08:29:31;;;;;;;8.05;6.78;;;;;;;;;;4971085;28;100263;-71
2023/08/30 08:31:58;;;;;;;7.32;6.32;;;;;;;;;;4970236;28;100183;-73
2023/08/30 08:34:24;;;;;;;6.85;6.20;;;;;;;;;;4973868;28;99882;-74
2023/08/30 08:36:53;;;;;;;5.53;4.97;;;;;;;;;;4973508;28;100099;-73
2023/08/30 08:39:20;;;;;;;6.72;6.05;;;;;;;;;;4969385;28;100253;-72
2023/08/30 08:41:46;;;;;;;6.07;5.28;;;;;;;;;;4968378;28;99551;-71
2023/08/30 08:44:13;;;;;;;6.20;5.60;;;;;;;;;;4988837;28;99684;-72
2023/08/30 08:46:40;;;;;;;8.88;5.97;;;;;;;;;;4988322;28;100282;-72
2023/08/30 08:49:16;;;;;;;6.38;5.40;;;;;;;;;;4988286;28;99710;-71
2023/08/30 08:51:43;;;;;;;7.82;6.15;;;;;;;;;;4982503;28;101592;-72
2023/08/30 08:54:10;;;;;;;5.63;5.00;;;;;;;;;;4968717;28;99989;-72
2023/08/30 08:56:37;;;;;;;6.40;5.80;;;;;;;;;;4980088;28;99453;-72
2023/08/30 08:59:05;;;;;;;6.95;5.32;;;;;;;;;;4988298;28;99357;-71
2023/08/30 09:01:33;;;;;;;8.43;5.25;;;;;;;;;;4987330;28;100769;-71
2023/08/30 09:04:06;;;;;;;6.35;5.72;;;;;;;;;;4989124;28;99646;-71
2023/08/30 09:06:33;;;;;;;7.25;6.57;;;;;;;;;;4991415;28;100052;-72
2023/08/30 09:09:00;;;;;;;7.82;6.10;;;;;;;;;;4987380;28;99523;-72
2023/08/30 09:11:27;;;;;;;7.85;5.80;;;;;;;;;;4987539;28;99287;-71
2023/08/30 09:14:13;;;;;;;6.00;5.50;;;;;;;;;;4970373;28;101147;-73
2023/08/30 09:16:39;;;;;;;8.10;5.82;;;;;;;;;;4968105;28;100524;-71
2023/08/30 09:19:07;;;;;;;6.95;6.05;;;;;;;;;;4968200;28;99055;-71
2023/08/30 09:21:36;;;;;;;6.78;5.75;;;;;;;;;;4968568;28;98978;-71
2023/08/30 09:24:05;;;;;;;6.90;6.20;;;;;;;;;;4967534;28;100621;-71
2023/08/30 09:26:32;;;;;;;7.63;5.05;;;;;;;;;;4967573;28;99928;-71
2023/08/30 09:29:05;;;;;;;7.25;6.13;;;;;;;;;;4971257;28;99947;-70
2023/08/30 09:31:34;;;;;;;6.88;5.75;;;;;;;;;;4967253;28;99751;-71
2023/08/30 09:34:02;;;;;;;5.93;5.45;;;;;;;;;;4968661;28;99851;-72
2023/08/30 09:36:38;;;;;;;7.43;5.60;;;;;;;;;;4985300;28;100985;-71
2023/08/30 09:39:09;;;;;;;5.88;5.38;;;;;;;;;;4986148;28;100388;-71
2023/08/30 09:41:36;;;;;;;5.97;5.37;;;;;;;;;;4988220;28;100100;-71
2023/08/30 09:44:07;;;;;;;5.68;5.18;;;;;;;;;;4987906;28;99490;-72
2023/08/30 09:47:00;;;;;;;8.65;5.43;;;;;;;;;;4986846;28;100315;-72
2023/08/30 09:49:27;;;;;;;5.97;5.32;;;;;;;;;;4967829;28;99899;-72
2023/08/30 09:51:54;;;;;;;5.80;5.30;;;;;;;;;;4971278;28;99245;-71
2023/08/30 09:54:23;;;;;;;5.95;5.15;;;;;;;;;;4967971;28;99720;-72
2023/08/30 09:57:05;;;;;;;6.63;6.03;;;;;;;;;;4984018;28;99703;-72
2023/08/30 09:59:31;;;;;;;6.75;5.55;;;;;;;;;;4978939;28;100461;-71
2023/08/30 10:02:00;;;;;;;6.85;5.47;;;;;;;;;;4967871;28;99153;-72
2023/08/30 10:04:27;;;;;;;6.53;6.00;;;;;;;;;;4983947;28;100334;-71
2023/08/30 10:06:55;;;;;;;6.35;5.78;;;;;;;;;;4986780;28;98887;-72
2023/08/30 10:09:22;;;;;;;8.50;6.63;;;;;;;;;;4987058;28;100134;-71
2023/08/30 10:11:50;;;;;;;6.97;6.38;;;;;;;;;;4986801;28;100451;-72
2023/08/30 10:14:17;;;;;;;6.78;6.18;;;;;;;;;;4990427;28;101364;-71
2023/08/30 10:16:45;;;;;;;6.95;6.20;;;;;;;;;;4983483;28;101884;-71
2023/08/30 10:19:15;;;;;;;6.28;5.82;;;;;;;;;;4968289;28;100064;-71
2023/08/30 10:21:44;;;;;;;7.05;6.45;;;;;;;;;;4987344;28;99456;-72
2023/08/30 10:24:13;;;;;;;6.38;5.88;;;;;;;;;;4965989;28;100923;-71
2023/08/30 10:26:59;;;;;;;7.65;6.28;;;;;;;;;;4970055;28;99738;-71
2023/08/30 10:29:26;;;;;;;8.00;7.22;;;;;;;;;;4969117;28;100043;-70
2023/08/30 10:31:52;;;;;;;7.30;6.70;;;;;;;;;;4971427;28;99299;-70
2023/08/30 10:34:20;;;;;;;7.68;7.07;;;;;;;;;;4967133;28;101185;-71
2023/08/30 10:36:56;;;;;;;6.70;6.13;;;;;;;;;;4976854;28;99848;-71
2023/08/30 10:39:27;;;;;;;7.13;6.38;;;;;;;;;;4970354;28;99365;-71
2023/08/30 10:41:55;;;;;;;6.30;5.90;;;;;;;;;;4967049;28;99930;-70
2023/08/30 10:44:22;;;;;;;6.93;5.90;;;;;;;;;;4970259;28;100134;-71
2023/08/30 10:46:53;;;;;;;5.00;4.70;;;;;;;;;;4968835;28;100362;-71
2023/08/30 10:49:23;;;;;;;5.90;4.65;;;;;;;;;;4973576;28;99636;-72
2023/08/30 10:51:57;;;;;;;7.35;4.88;;;;;;;;;;4971990;28;100780;-71
2023/08/30 10:54:24;;;;;;;4.53;3.75;;;;;;;;;;4986060;28;99905;-71
2023/08/30 10:56:50;;;;;;;5.97;3.40;;;;;;;;;;4988226;28;99006;-71
2023/08/30 10:59:17;;;;;;;2.97;2.78;;;;;;;;;;4986099;28;99096;-71
2023/08/30 11:01:45;;;;;;;4.55;2.70;;;;;;;;;;4985889;28;100021;-72
2023/08/30 11:04:14;;;;;;;4.45;3.00;;;;;;;;;;4977134;28;100513;-70
2023/08/30 11:06:42;;;;;;;5.25;2.83;;;;;;;;;;4979546;28;99137;-71
2023/08/30 11:09:08;;;;;;;5.22;2.97;;;;;;;;;;4967757;28;100346;-70
2023/08/30 11:11:37;;;;;;;2.58;2.38;;;;;;;;;;4972077;28;99706;-71
2023/08/30 11:14:04;;;;;;;8.40;2.60;;;;;;;;;;4972057;28;99194;-70
2023/08/30 11:16:30;;;;;;;2.03;1.83;;;;;;;;;;4965924;28;99364;-70
2023/08/30 11:18:56;;;;;;;4.55;2.47;;;;;;;;;;4970559;28;100096;-71
2023/08/30 11:21:23;;;;;;;2.22;1.90;;;;;;;;;;4966506;28;100527;-70
2023/08/30 11:23:51;;;;;;;4.28;2.55;;;;;;;;;;4965959;28;100740;-71
2023/08/30 11:26:17;;;;;;;6.85;2.20;;;;;;;;;;4965589;28;99934;-71
2023/08/30 11:28:48;;;;;;;7.13;2.22;;;;;;;;;;4975617;28;99289;-71
2023/08/30 11:31:17;;;;;;;6.65;2.13;;;;;;;;;;4985589;28;100369;-71
2023/08/30 11:33:52;;;;;;;5.68;2.00;;;;;;;;;;4970640;28;98965;-71
2023/08/30 11:36:21;;;;;;;5.40;1.70;;;;;;;;;;4965615;28;99161;-71
2023/08/30 11:38:49;;;;;;;2.22;1.92;;;;;;;;;;4968483;28;100439;-70
2023/08/30 11:41:16;;;;;;;5.32;2.40;;;;;;;;;;4989007;28;99835;-71
2023/08/30 11:43:46;;;;;;;9.55;2.70;;;;;;;;;;4985558;28;100795;-71
2023/08/30 11:46:13;;;;;;;4.72;3.20;;;;;;;;;;4983784;28;101169;-71
2023/08/30 11:48:40;;;;;;;4.95;2.25;;;;;;;;;;4975137;28;99495;-70
2023/08/30 11:51:07;;;;;;;8.98;2.72;;;;;;;;;;4988930;28;100190;-71
2023/08/30 11:53:33;;;;;;;6.40;2.10;;;;;;;;;;4976050;28;99856;-70
2023/08/30 11:56:00;;;;;;;5.15;2.00;;;;;;;;;;4970615;28;100069;-71
2023/08/30 11:58:27;;;;;;;5.88;2.40;;;;;;;;;;4976200;28;99468;-72
2023/08/30 12:00:54;;;;;;;9.50;2.10;;;;;;;;;;4973718;28;99151;-72
2023/08/30 12:03:21;;;;;;;6.43;2.47;;;;;;;;;;4989837;28;100319;-71
2023/08/30 12:05:49;;;;;;;7.40;1.92;;;;;;;;;;4969609;28;100788;-71
2023/08/30 12:08:33;;;;;;;5.35;2.35;;;;;;;;;;4977486;28;100143;-71
2023/08/30 12:11:01;;;;;;;11.95;2.70;;;;;;;;;;4989553;28;99382;-70
2023/08/30 12:13:28;;;;;;;7.40;2.15;;;;;;;;;;4972904;28;98931;-72
2023/08/30 12:15:55;;;;;;;11.82;2.00;;;;;;;;;;4987696;28;100268;-71
2023/08/30 12:18:27;;;;;;;3.83;2.08;;;;;;;;;;4999429;28;99415;-72
2023/08/30 12:21:03;;;;;;;4.53;2.00;;;;;;;;;;4970037;28;98925;-72
2023/08/30 12:23:31;;;;;;;10.88;2.67;;;;;;;;;;4969532;28;99010;-71
2023/08/30 12:25:58;;;;;;;4.22;1.88;;;;;;;;;;4978627;28;100036;-72
2023/08/30 12:28:28;;;;;;;6.95;1.80;;;;;;;;;;4975045;28;100526;-72
2023/08/30 12:30:55;;;;;;;3.03;1.67;;;;;;;;;;4973950;28;100180;-72
2023/08/30 12:33:21;;;;;;;7.75;1.90;;;;;;;;;;4968739;28;99843;-71
2023/08/30 12:35:48;;;;;;;8.82;2.40;;;;;;;;;;4970990;28;99733;-71
2023/08/30 12:38:17;;;;;;;5.70;1.60;;;;;;;;;;4977338;28;101110;-72
2023/08/30 12:40:47;;;;;;;11.48;2.53;;;;;;;;;;4979265;28;98902;-72
2023/08/30 12:43:14;;;;;;;7.07;2.75;;;;;;;;;;4988592;28;100102;-72
2023/08/30 12:45:41;;;;;;;7.60;2.10;;;;;;;;;;4986029;28;100684;-72
2023/08/30 12:48:08;;;;;;;4.35;2.88;;;;;;;;;;4980482;28;98934;-72
2023/08/30 12:50:38;;;;;;;5.88;2.08;;;;;;;;;;4988565;28;100189;-72
2023/08/30 12:53:05;;;;;;;6.88;2.22;;;;;;;;;;5005517;28;100175;-72
2023/08/30 12:55:34;;;;;;;9.35;1.80;;;;;;;;;;5007409;28;99574;-72
2023/08/30 12:58:01;;;;;;;3.67;1.70;;;;;;;;;;5008602;28;100183;-72
2023/08/30 13:00:27;;;;;;;4.75;1.63;;;;;;;;;;4980082;28;98916;-72
2023/08/30 13:02:54;;;;;;;4.93;1.58;;;;;;;;;;4974621;28;99855;-71
2023/08/30 13:05:21;;;;;;;3.35;1.95;;;;;;;;;;4984189;28;100084;-71
2023/08/30 13:07:48;;;;;;;3.03;1.50;;;;;;;;;;4990537;28;99093;-71
2023/08/30 13:10:14;;;;;;;4.88;1.55;;;;;;;;;;4981381;28;101445;-72
2023/08/30 13:12:41;;;;;;;10.15;1.83;;;;;;;;;;4989231;28;100243;-72
2023/08/30 13:15:09;;;;;;;6.05;1.50;;;;;;;;;;4986806;28;99128;-72
2023/08/30 13:17:35;;;;;;;13.77;1.92;;;;;;;;;;4988149;28;100479;-72
2023/08/30 13:20:02;;;;;;;7.00;1.98;;;;;;;;;;4987518;28;100357;-72
2023/08/30 13:22:29;;;;;;;6.13;1.85;;;;;;;;;;4987514;28;99911;-72
2023/08/30 13:24:55;;;;;;;6.03;1.75;;;;;;;;;;4988240;28;100153;-72
2023/08/30 13:27:22;;;;;;;3.45;1.63;;;;;;;;;;4988042;28;100368;-72
2023/08/30 13:29:48;;;;;;;8.13;1.40;;;;;;;;;;4990611;28;99876;-71
2023/08/30 13:32:15;;;;;;;5.03;2.15;;;;;;;;;;4987067;28;99901;-71
2023/08/30 13:34:45;;;;;;;5.68;2.03;;;;;;;;;;4967520;28;100117;-70
2023/08/30 13:37:15;;;;;;;2.90;1.88;;;;;;;;;;4967723;28;99421;-72
2023/08/30 13:39:41;;;;;;;4.47;1.70;;;;;;;;;;4967597;28;99239;-70
2023/08/30 13:42:08;;;;;;;6.03;1.50;;;;;;;;;;4968176;28;99772;-70
2023/08/30 13:44:37;;;;;;;5.53;1.58;;;;;;;;;;4966762;28;99167;-70
2023/08/30 13:47:04;;;;;;;4.55;1.60;;;;;;;;;;4968093;28;99145;-71
2023/08/30 13:49:31;;;;;;;7.07;1.77;;;;;;;;;;4969566;28;99720;-71
2023/08/30 13:51:58;;;;;;;3.08;1.48;;;;;;;;;;4979176;28;100290;-71
2023/08/30 13:54:24;;;;;;;3.72;1.92;;;;;;;;;;4967458;28;98863;-72
2023/08/30 13:56:51;;;;;;;5.25;1.60;;;;;;;;;;4985906;28;100050;-72
2023/08/30 13:59:18;;;;;;;4.03;1.92;;;;;;;;;;4987554;28;99621;-71
2023/08/30 14:01:45;;;;;;;8.07;1.73;;;;;;;;;;4987934;28;100030;-72
2023/08/30 14:04:11;;;;;;;3.83;1.83;;;;;;;;;;4986744;28;100195;-71
2023/08/30 14:06:38;;;;;;;5.18;1.65;;;;;;;;;;4987782;28;99865;-72
2023/08/30 14:09:05;;;;;;;4.80;1.60;;;;;;;;;;4967279;28;100148;-70
2023/08/30 14:11:33;;;;;;;5.25;1.30;;;;;;;;;;4966298;28;100347;-72
2023/08/30 14:13:59;;;;;;;5.07;1.27;;;;;;;;;;4970779;28;100152;-71
2023/08/30 14:16:26;;;;;;;4.03;1.30;;;;;;;;;;4967216;28;100197;-71
2023/08/30 14:18:52;;;;;;;3.13;1.30;;;;;;;;;;4967173;28;99947;-70
2023/08/30 14:21:18;;;;;;;3.90;1.30;;;;;;;;;;4967462;28;99057;-71
2023/08/30 14:23:45;;;;;;;3.53;1.27;;;;;;;;;;4967555;28;99473;-70
2023/08/30 14:26:12;;;;;;;7.03;1.33;;;;;;;;;;4967522;28;99494;-71
2023/08/30 14:28:39;;;;;;;2.40;1.33;;;;;;;;;;4968620;28;99523;-71
2023/08/30 14:31:06;;;;;;;3.33;1.13;;;;;;;;;;4968154;28;99261;-71
2023/08/30 14:33:33;;;;;;;2.42;1.17;;;;;;;;;;4965814;28;99246;-70
2023/08/30 14:36:02;;;;;;;4.20;1.85;;;;;;;;;;4970761;28;100756;-71